Time;durP1;ratioP1;P1;durP2;ratioP2;P2;SDS_P1;SDS_P2;PMS_P1;PMS_P2;Temp;Humidity;BMP_temperature;BMP_pressure;BME280_temperature;BME280_humidity;BME280_pressure;Samples;Min_cycle;Max_cycle;Signal;HPM_P1;HPM_P2
2022/09/06 00:02:09;;;;;;;0.70;0.70;;;27.00;61.10;;;;;;5122205;28;20461;-64
2022/09/06 00:04:39;;;;;;;0.80;0.80;;;27.00;60.70;;;;;;5120050;28;20460;-66
2022/09/06 00:07:10;;;;;;;1.03;1.00;;;27.00;60.70;;;;;;5114378;28;20471;-66
2022/09/06 00:09:41;;;;;;;0.90;0.70;;;27.00;61.20;;;;;;5105245;28;20460;-64
2022/09/06 00:12:13;;;;;;;1.37;1.27;;;27.10;60.50;;;;;;5098880;28;20453;-65
2022/09/06 00:14:44;;;;;;;1.10;0.87;;;27.00;61.00;;;;;;5118787;28;20456;-65
2022/09/06 00:17:16;;;;;;;0.90;0.90;;;26.90;60.70;;;;;;5103856;28;20524;-66
2022/09/06 00:19:47;;;;;;;1.20;1.10;;;26.80;61.30;;;;;;5119754;28;20457;-66
2022/09/06 00:22:18;;;;;;;0.93;0.93;;;26.80;61.90;;;;;;5101881;28;20457;-67
2022/09/06 00:24:48;;;;;;;1.10;1.00;;;26.80;62.30;;;;;;5087288;28;20485;-66
2022/09/06 00:27:21;;;;;;;1.70;1.60;;;26.80;61.30;;;;;;5100610;28;20464;-66
2022/09/06 00:29:51;;;;;;;2.07;1.87;;;26.60;61.40;;;;;;5111071;28;20471;-67
2022/09/06 00:32:22;;;;;;;1.60;1.50;;;26.70;61.10;;;;;;5097536;28;20465;-66
2022/09/06 00:34:53;;;;;;;1.90;1.50;;;26.60;61.80;;;;;;5108105;28;20591;-66
2022/09/06 00:37:24;;;;;;;1.53;1.40;;;26.40;61.60;;;;;;5110885;28;20452;-66
2022/09/06 00:39:54;;;;;;;1.13;1.03;;;26.40;61.50;;;;;;5105459;28;20475;-66
2022/09/06 00:42:27;;;;;;;1.30;1.20;;;26.30;62.10;;;;;;5114736;28;20928;-66
2022/09/06 00:44:58;;;;;;;1.10;1.00;;;26.20;61.50;;;;;;5114563;28;20492;-66
2022/09/06 00:47:29;;;;;;;2.83;1.00;;;26.20;61.50;;;;;;5123148;28;20984;-66
2022/09/06 00:50:01;;;;;;;1.10;1.00;;;26.20;62.20;;;;;;5120695;28;20982;-66
2022/09/06 00:52:34;;;;;;;1.80;1.37;;;26.30;62.40;;;;;;5110054;28;20469;-66
2022/09/06 00:55:06;;;;;;;1.00;0.90;;;26.30;63.10;;;;;;5114589;28;20447;-65
2022/09/06 00:57:38;;;;;;;1.03;0.87;;;26.30;63.10;;;;;;5107461;28;21149;-66
2022/09/06 01:00:10;;;;;;;1.50;1.40;;;26.30;63.50;;;;;;5118314;28;20456;-65
2022/09/06 01:02:41;;;;;;;1.60;1.50;;;26.20;64.10;;;;;;5104510;28;20471;-67
2022/09/06 01:05:13;;;;;;;1.23;1.13;;;26.20;63.50;;;;;;5114928;28;20512;-64
2022/09/06 01:07:59;;;;;;;1.30;1.10;;;26.00;63.80;;;;;;5103883;28;20926;-64
2022/09/06 01:10:53;;;;;;;1.23;1.13;;;25.90;63.90;;;;;;5115443;28;20458;-64
2022/09/06 01:13:34;;;;;;;0.90;0.90;;;25.80;64.50;;;;;;5105190;28;20460;-65
2022/09/06 01:16:14;;;;;;;0.70;0.70;;;25.70;65.40;;;;;;5117960;28;20491;-65
2022/09/06 01:18:59;;;;;;;0.80;0.80;;;25.70;65.60;;;;;;5091283;28;20520;-66
2022/09/06 01:21:39;;;;;;;0.60;0.60;;;25.60;66.40;;;;;;5106079;28;20482;-67
2022/09/06 01:24:39;;;;;;;1.37;1.27;;;25.60;66.80;;;;;;5095087;28;20562;-67
2022/09/06 01:27:58;;;;;;;1.57;1.47;;;25.60;66.30;;;;;;5096167;28;20465;-66
2022/09/06 01:30:31;;;;;;;1.73;1.50;;;25.50;66.80;;;;;;5089738;28;20464;-65
2022/09/06 01:33:07;;;;;;;1.27;1.20;;;25.30;66.50;;;;;;5121400;28;20504;-67
2022/09/06 01:35:41;;;;;;;0.97;0.90;;;25.30;66.80;;;;;;5117238;28;20454;-67
2022/09/06 01:38:12;;;;;;;1.30;1.20;;;25.20;66.40;;;;;;5124010;28;20483;-66
2022/09/06 01:40:43;;;;;;;1.23;1.13;;;25.10;67.30;;;;;;5109644;28;20515;-67
2022/09/06 01:43:26;;;;;;;1.03;1.03;;;25.00;66.80;;;;;;5108691;28;20476;-66
2022/09/06 01:46:06;;;;;;;0.87;0.87;;;24.90;66.50;;;;;;5106516;28;20613;-66
2022/09/06 01:48:50;;;;;;;1.27;1.17;;;24.80;67.10;;;;;;5116239;28;20468;-65
2022/09/06 01:51:31;;;;;;;0.80;0.80;;;24.80;67.30;;;;;;5097515;28;20459;-64
2022/09/06 01:54:25;;;;;;;0.93;0.83;;;24.70;67.40;;;;;;5100224;28;20471;-65
2022/09/06 01:57:10;;;;;;;1.10;1.00;;;24.60;67.70;;;;;;5102571;28;20774;-65
2022/09/06 01:59:56;;;;;;;1.00;1.00;;;24.50;67.90;;;;;;5106212;28;20482;-65
2022/09/06 02:02:34;;;;;;;0.83;0.83;;;24.30;68.20;;;;;;5103856;28;20451;-65
2022/09/06 02:05:09;;;;;;;1.20;1.10;;;24.20;68.00;;;;;;5105085;28;20991;-65
2022/09/06 02:07:43;;;;;;;0.90;0.90;;;24.20;69.00;;;;;;5101699;28;20450;-65
2022/09/06 02:10:19;;;;;;;2.87;1.10;;;24.10;69.40;;;;;;5111809;28;20457;-65
2022/09/06 02:12:54;;;;;;;0.90;0.87;;;24.00;69.80;;;;;;5114565;28;20448;-65
2022/09/06 02:15:30;;;;;;;1.00;1.00;;;24.00;70.00;;;;;;5116575;28;20482;-64
2022/09/06 02:18:05;;;;;;;0.90;0.90;;;23.90;70.00;;;;;;5112429;28;20454;-64
2022/09/06 02:20:42;;;;;;;1.20;1.10;;;23.80;70.70;;;;;;5110283;28;20818;-65
2022/09/06 02:23:13;;;;;;;1.10;1.00;;;23.70;70.90;;;;;;5107938;28;20454;-65
2022/09/06 02:25:50;;;;;;;0.83;0.83;;;23.70;71.30;;;;;;5106387;28;20494;-64
2022/09/06 02:28:22;;;;;;;1.00;1.00;;;23.60;71.50;;;;;;5098653;28;20458;-64
2022/09/06 02:30:59;;;;;;;1.40;1.30;;;23.50;72.00;;;;;;5113641;28;20466;-65
2022/09/06 02:33:32;;;;;;;0.90;0.90;;;23.40;72.80;;;;;;5119335;28;20441;-65
2022/09/06 02:36:07;;;;;;;4.43;1.50;;;23.40;72.60;;;;;;5089326;28;20495;-64
2022/09/06 02:38:40;;;;;;;1.27;1.17;;;23.30;73.00;;;;;;5098043;28;20489;-65
2022/09/06 02:41:12;;;;;;;1.13;1.03;;;23.20;73.30;;;;;;5114818;28;20466;-64
2022/09/06 02:43:43;;;;;;;1.20;1.10;;;23.10;73.60;;;;;;5101663;28;20495;-63
2022/09/06 02:46:16;;;;;;;1.20;1.10;;;23.10;73.90;;;;;;5105938;28;20573;-67
2022/09/06 02:48:48;;;;;;;1.27;1.17;;;23.10;74.20;;;;;;5100085;28;20616;-66
2022/09/06 02:51:20;;;;;;;1.37;1.27;;;23.00;74.00;;;;;;5108714;28;20456;-65
2022/09/06 02:53:51;;;;;;;1.23;1.13;;;22.90;74.30;;;;;;5126436;28;20441;-65
2022/09/06 02:56:22;;;;;;;1.37;1.27;;;22.80;74.80;;;;;;5115936;28;20798;-65
2022/09/06 02:58:52;;;;;;;2.27;2.07;;;22.80;74.60;;;;;;5118463;28;20800;-65
2022/09/06 03:01:25;;;;;;;1.00;1.00;;;22.70;74.90;;;;;;5120440;28;20469;-65
2022/09/06 03:03:56;;;;;;;2.50;1.60;;;22.60;75.00;;;;;;5103386;28;20454;-67
2022/09/06 03:06:26;;;;;;;1.63;1.00;;;22.50;75.00;;;;;;5104021;28;20465;-67
2022/09/06 03:08:58;;;;;;;1.40;1.20;;;22.50;75.10;;;;;;5117303;28;20470;-67
2022/09/06 03:11:29;;;;;;;5.00;4.60;;;22.40;75.50;;;;;;5097451;28;20460;-68
2022/09/06 03:14:00;;;;;;;1.20;1.10;;;22.30;75.90;;;;;;5125649;28;20453;-68
2022/09/06 03:16:33;;;;;;;1.47;1.37;;;22.30;75.40;;;;;;5109151;28;20446;-67
2022/09/06 03:19:04;;;;;;;1.30;1.20;;;22.20;75.30;;;;;;5100943;28;20497;-67
2022/09/06 03:21:34;;;;;;;1.10;1.00;;;22.20;75.50;;;;;;5115109;28;20544;-67
2022/09/06 03:24:05;;;;;;;1.43;0.97;;;22.20;75.80;;;;;;5104110;28;20457;-67
2022/09/06 03:26:36;;;;;;;0.70;0.60;;;22.10;75.50;;;;;;5111538;28;20484;-67
2022/09/06 03:29:08;;;;;;;1.10;1.00;;;22.10;76.60;;;;;;5116878;28;20445;-67
2022/09/06 03:31:40;;;;;;;1.53;1.20;;;22.00;75.70;;;;;;5121996;28;20449;-67
2022/09/06 03:34:11;;;;;;;1.10;1.00;;;21.90;75.60;;;;;;5093521;28;20489;-67
2022/09/06 03:36:42;;;;;;;1.20;1.03;;;21.90;75.80;;;;;;5113792;28;20457;-67
2022/09/06 03:39:12;;;;;;;1.00;0.90;;;21.80;75.90;;;;;;5118942;28;20507;-67
2022/09/06 03:41:43;;;;;;;0.90;0.70;;;21.70;75.90;;;;;;5096253;28;20477;-67
2022/09/06 03:44:14;;;;;;;2.40;2.17;;;21.70;76.30;;;;;;5110824;28;20508;-67
2022/09/06 03:46:46;;;;;;;1.30;1.10;;;21.60;76.50;;;;;;5105938;28;20475;-67
2022/09/06 03:49:17;;;;;;;3.37;1.00;;;21.60;76.30;;;;;;5120396;28;20492;-67
2022/09/06 03:51:48;;;;;;;0.80;0.77;;;21.50;76.00;;;;;;5125041;28;20456;-67
2022/09/06 03:54:19;;;;;;;0.77;0.63;;;21.50;76.00;;;;;;5104586;28;20458;-67
2022/09/06 03:56:49;;;;;;;0.87;0.70;;;21.40;76.00;;;;;;5111771;28;20458;-68
2022/09/06 03:59:20;;;;;;;1.57;0.90;;;21.40;76.10;;;;;;5115904;28;20465;-68
2022/09/06 04:01:52;;;;;;;1.30;1.20;;;21.40;75.80;;;;;;5111213;28;20469;-68
2022/09/06 04:04:23;;;;;;;1.40;1.30;;;21.30;75.90;;;;;;5114852;28;20520;-68
2022/09/06 04:06:54;;;;;;;1.10;1.00;;;21.30;76.20;;;;;;5096388;28;20467;-67
2022/09/06 04:09:25;;;;;;;1.00;0.90;;;21.20;75.50;;;;;;5101520;28;20459;-66
2022/09/06 04:11:56;;;;;;;0.63;0.63;;;21.20;75.50;;;;;;5124829;28;20456;-66
2022/09/06 04:14:26;;;;;;;1.27;0.80;;;21.10;75.50;;;;;;5124979;28;20488;-67
2022/09/06 04:16:59;;;;;;;1.30;0.73;;;21.10;75.40;;;;;;5098469;28;20447;-67
2022/09/06 04:19:30;;;;;;;1.17;0.73;;;21.00;75.50;;;;;;5121874;28;20583;-67
2022/09/06 04:22:00;;;;;;;0.80;0.80;;;21.00;76.10;;;;;;5124783;28;20451;-67
2022/09/06 04:24:31;;;;;;;2.70;0.70;;;20.90;75.20;;;;;;5125079;28;20472;-66
2022/09/06 04:27:02;;;;;;;0.73;0.73;;;20.80;75.20;;;;;;5124891;28;20772;-67
2022/09/06 04:29:32;;;;;;;1.27;0.73;;;20.80;74.10;;;;;;5113397;27;20481;-67
2022/09/06 04:32:05;;;;;;;1.40;0.80;;;20.70;74.20;;;;;;5090599;28;20798;-68
2022/09/06 04:34:36;;;;;;;0.53;0.53;;;20.70;73.70;;;;;;5105466;28;20457;-67
2022/09/06 04:37:08;;;;;;;2.20;0.77;;;20.70;73.00;;;;;;5111495;28;20458;-68
2022/09/06 04:39:38;;;;;;;0.80;0.70;;;20.60;71.80;;;;;;5105459;28;20487;-67
2022/09/06 04:42:09;;;;;;;0.73;0.73;;;20.60;71.80;;;;;;5124716;28;20461;-68
2022/09/06 04:44:40;;;;;;;1.23;0.60;;;20.50;71.40;;;;;;5119220;28;20456;-68
2022/09/06 04:47:17;;;;;;;0.77;0.70;;;20.50;70.80;;;;;;5104873;28;20422;-67
2022/09/06 04:49:48;;;;;;;1.20;0.70;;;20.50;70.20;;;;;;5116900;28;20433;-68
2022/09/06 04:52:19;;;;;;;0.90;0.80;;;20.50;70.80;;;;;;5124090;28;20767;-67
2022/09/06 04:54:53;;;;;;;1.00;0.80;;;20.40;70.40;;;;;;5104700;28;20445;-68
2022/09/06 04:57:24;;;;;;;1.20;1.10;;;20.40;69.80;;;;;;5124640;28;20445;-68
2022/09/06 04:59:55;;;;;;;2.50;0.80;;;20.40;69.50;;;;;;5105982;28;20495;-66
2022/09/06 05:02:27;;;;;;;1.50;0.90;;;20.40;69.60;;;;;;5090388;27;20877;-66
2022/09/06 05:04:58;;;;;;;0.60;0.60;;;20.30;69.20;;;;;;5123353;28;20471;-66
2022/09/06 05:07:29;;;;;;;0.77;0.73;;;20.30;69.30;;;;;;5113604;28;20442;-66
2022/09/06 05:09:59;;;;;;;1.00;0.73;;;20.20;69.00;;;;;;5123336;28;20424;-66
2022/09/06 05:12:30;;;;;;;0.77;0.77;;;20.20;68.60;;;;;;5124275;28;20453;-66
2022/09/06 05:15:01;;;;;;;1.67;0.80;;;20.20;68.70;;;;;;5123770;28;20444;-65
2022/09/06 05:17:34;;;;;;;1.70;0.60;;;20.10;69.30;;;;;;5124048;28;20458;-65
2022/09/06 05:20:05;;;;;;;0.60;0.60;;;20.00;69.30;;;;;;5124038;28;20456;-65
2022/09/06 05:22:36;;;;;;;1.10;0.63;;;20.00;68.70;;;;;;5123220;28;20908;-65
2022/09/06 05:25:07;;;;;;;0.67;0.67;;;19.90;68.70;;;;;;5122780;28;20464;-65
2022/09/06 05:27:38;;;;;;;0.73;0.67;;;19.90;69.40;;;;;;5123953;28;20537;-66
2022/09/06 05:30:10;;;;;;;1.30;1.00;;;19.90;68.50;;;;;;5120774;28;20447;-65
2022/09/06 05:32:42;;;;;;;0.70;0.60;;;19.80;68.70;;;;;;5117682;28;20436;-65
2022/09/06 05:35:13;;;;;;;1.60;1.40;;;19.70;69.00;;;;;;5102070;28;20508;-66
2022/09/06 05:37:44;;;;;;;0.70;0.70;;;19.70;68.80;;;;;;5123198;28;20424;-65
2022/09/06 05:40:15;;;;;;;0.77;0.77;;;19.70;68.00;;;;;;5123527;28;20452;-66
2022/09/06 05:42:46;;;;;;;1.53;0.80;;;19.70;68.70;;;;;;5119210;28;20769;-66
2022/09/06 05:45:17;;;;;;;0.90;0.70;;;19.70;68.80;;;;;;5117996;28;20913;-65
2022/09/06 05:47:51;;;;;;;1.73;0.67;;;19.60;69.10;;;;;;5119483;28;20426;-66
2022/09/06 05:50:21;;;;;;;0.83;0.53;;;19.50;68.90;;;;;;5118773;28;20486;-66
2022/09/06 05:52:54;;;;;;;0.70;0.70;;;19.50;69.20;;;;;;5108812;28;20437;-66
2022/09/06 05:55:25;;;;;;;1.10;1.00;;;19.40;69.60;;;;;;5118131;28;20436;-66
2022/09/06 05:57:56;;;;;;;0.80;0.80;;;19.40;69.20;;;;;;5113731;28;20462;-65
2022/09/06 06:00:27;;;;;;;0.80;0.80;;;19.30;69.50;;;;;;5102831;28;21613;-65
2022/09/06 06:02:59;;;;;;;1.30;0.93;;;19.30;69.50;;;;;;5123255;28;20451;-66
2022/09/06 06:05:30;;;;;;;0.73;0.67;;;19.30;70.00;;;;;;5123680;28;20420;-65
2022/09/06 06:08:01;;;;;;;2.10;0.67;;;19.20;70.80;;;;;;5108077;28;20450;-65
2022/09/06 06:10:31;;;;;;;1.03;0.87;;;19.20;70.80;;;;;;5122882;28;20453;-66
2022/09/06 06:13:07;;;;;;;0.80;0.57;;;19.10;71.40;;;;;;5123406;28;20420;-65
2022/09/06 06:15:38;;;;;;;0.47;0.47;;;19.00;71.10;;;;;;5118182;28;20439;-66
2022/09/06 06:18:10;;;;;;;0.60;0.60;;;19.00;71.50;;;;;;5123238;28;20494;-65
2022/09/06 06:20:41;;;;;;;1.27;0.70;;;18.90;71.80;;;;;;5122929;28;20485;-65
2022/09/06 06:23:12;;;;;;;1.00;0.80;;;18.90;71.50;;;;;;5119992;28;20530;-65
2022/09/06 06:25:42;;;;;;;0.50;0.50;;;18.80;71.80;;;;;;5123053;28;20533;-65
2022/09/06 06:28:13;;;;;;;1.40;0.70;;;18.80;71.80;;;;;;5127632;28;20424;-65
2022/09/06 06:30:44;;;;;;;0.93;0.60;;;18.80;72.40;;;;;;5126695;28;20449;-65
2022/09/06 06:33:16;;;;;;;1.33;0.77;;;18.80;72.20;;;;;;5113995;28;20442;-65
2022/09/06 06:36:01;;;;;;;0.83;0.50;;;18.80;72.40;;;;;;5124740;28;20453;-65
2022/09/06 06:38:33;;;;;;;1.57;0.70;;;18.70;73.20;;;;;;5117703;28;20432;-65
2022/09/06 06:41:04;;;;;;;1.07;0.90;;;18.70;73.70;;;;;;5116341;28;20499;-65
2022/09/06 06:43:36;;;;;;;1.70;0.80;;;18.60;73.90;;;;;;5127016;28;20470;-65
2022/09/06 06:46:08;;;;;;;0.60;0.60;;;18.50;74.20;;;;;;5127600;28;20491;-65
2022/09/06 06:48:42;;;;;;;2.20;0.80;;;18.40;74.80;;;;;;5123107;28;20449;-65
2022/09/06 06:51:15;;;;;;;0.57;0.57;;;18.40;75.60;;;;;;5089682;28;20444;-65
2022/09/06 06:53:47;;;;;;;0.80;0.60;;;18.40;75.60;;;;;;5116598;28;20461;-65
2022/09/06 06:56:19;;;;;;;1.00;0.80;;;18.30;75.70;;;;;;5126974;28;20456;-65
2022/09/06 06:58:51;;;;;;;1.07;0.77;;;18.30;76.20;;;;;;5125976;28;20900;-65
2022/09/06 07:01:23;;;;;;;0.70;0.53;;;18.20;76.20;;;;;;5124700;28;20543;-65
2022/09/06 07:03:55;;;;;;;1.03;0.70;;;18.20;76.50;;;;;;5101393;28;20487;-65
2022/09/06 07:06:28;;;;;;;0.80;0.80;;;18.10;77.70;;;;;;5110381;28;20871;-65
2022/09/06 07:09:20;;;;;;;1.27;0.67;;;18.10;78.40;;;;;;5110122;28;20432;-65
2022/09/06 07:11:51;;;;;;;0.90;0.80;;;18.00;78.60;;;;;;5107832;28;20466;-65
2022/09/06 07:14:21;;;;;;;0.67;0.60;;;18.00;79.20;;;;;;5112956;28;20437;-65
2022/09/06 07:16:57;;;;;;;0.70;0.70;;;17.90;79.50;;;;;;5114652;28;20561;-65
2022/09/06 07:19:29;;;;;;;0.90;0.80;;;17.80;80.00;;;;;;5118506;28;20952;-65
2022/09/06 07:22:20;;;;;;;0.50;0.50;;;17.80;81.90;;;;;;5109548;28;20541;-65
2022/09/06 07:24:51;;;;;;;0.90;0.73;;;17.70;80.70;;;;;;5108950;28;20458;-65
2022/09/06 07:27:21;;;;;;;0.57;0.57;;;17.70;81.10;;;;;;5112049;27;20477;-65
2022/09/06 07:30:14;;;;;;;1.10;0.70;;;17.70;82.00;;;;;;5112190;28;20437;-66
2022/09/06 07:32:44;;;;;;;1.57;0.70;;;17.60;81.90;;;;;;5116483;28;20468;-66
2022/09/06 07:35:19;;;;;;;1.00;0.90;;;17.60;82.50;;;;;;5118423;28;20424;-65
2022/09/06 07:37:56;;;;;;;1.00;0.87;;;17.50;83.10;;;;;;5115634;27;20435;-65
2022/09/06 07:40:29;;;;;;;1.53;1.07;;;17.50;84.00;;;;;;5116967;27;20443;-65
2022/09/06 07:43:00;;;;;;;0.70;0.60;;;17.40;84.40;;;;;;5119005;28;20828;-66
2022/09/06 07:45:31;;;;;;;0.60;0.60;;;17.40;83.80;;;;;;5117872;28;20481;-65
2022/09/06 07:48:02;;;;;;;0.50;0.50;;;17.40;84.90;;;;;;5118517;28;20467;-66
2022/09/06 07:50:36;;;;;;;1.87;1.10;;;17.30;84.30;;;;;;5115225;28;20428;-66
2022/09/06 07:53:14;;;;;;;1.30;0.93;;;17.30;84.30;;;;;;5121066;28;20454;-65
2022/09/06 07:55:57;;;;;;;0.60;0.60;;;17.20;84.60;;;;;;5100645;28;20454;-65
2022/09/06 07:58:29;;;;;;;0.80;0.53;;;17.20;84.30;;;;;;5111431;28;20462;-65
2022/09/06 08:01:17;;;;;;;1.13;0.70;;;17.20;85.40;;;;;;5106856;28;20433;-65
2022/09/06 08:03:48;;;;;;;1.37;0.93;;;17.20;85.70;;;;;;5097622;28;20545;-65
2022/09/06 08:06:21;;;;;;;1.27;0.70;;;17.10;87.00;;;;;;5122571;28;20439;-65
2022/09/06 08:08:53;;;;;;;0.70;0.70;;;17.10;87.80;;;;;;5115034;28;20444;-65
2022/09/06 08:11:31;;;;;;;1.43;0.90;;;17.10;88.90;;;;;;5100034;28;20455;-65
2022/09/06 08:14:04;;;;;;;1.10;0.73;;;16.90;89.60;;;;;;5119427;28;20436;-65
2022/09/06 08:16:36;;;;;;;0.60;0.60;;;16.90;89.70;;;;;;5121584;28;20461;-65
2022/09/06 08:19:09;;;;;;;0.50;0.50;;;16.80;89.20;;;;;;5103160;28;20493;-65
2022/09/06 08:21:42;;;;;;;0.93;0.77;;;16.70;90.00;;;;;;5102667;28;20483;-65
2022/09/06 08:24:13;;;;;;;0.60;0.60;;;16.70;90.60;;;;;;5107383;28;20767;-65
2022/09/06 08:26:44;;;;;;;1.10;0.53;;;16.70;90.50;;;;;;5112427;28;20439;-65
2022/09/06 08:29:15;;;;;;;0.90;0.73;;;16.70;90.50;;;;;;5109129;28;20451;-65
2022/09/06 08:31:46;;;;;;;0.80;0.60;;;16.60;90.40;;;;;;5118196;28;20487;-64
2022/09/06 08:34:17;;;;;;;0.67;0.67;;;16.60;90.50;;;;;;5093914;28;20471;-65
2022/09/06 08:36:49;;;;;;;0.80;0.60;;;16.50;90.70;;;;;;5124427;28;20450;-65
2022/09/06 08:39:20;;;;;;;1.13;0.70;;;16.60;91.20;;;;;;5111526;28;20440;-65
2022/09/06 08:41:55;;;;;;;1.40;1.13;;;16.50;91.90;;;;;;5121428;28;20485;-65
2022/09/06 08:44:30;;;;;;;1.17;1.07;;;16.50;92.20;;;;;;5109922;28;20447;-65
2022/09/06 08:47:22;;;;;;;0.53;0.53;;;16.50;92.80;;;;;;5110648;28;20514;-65
2022/09/06 08:49:56;;;;;;;1.00;0.90;;;16.40;92.80;;;;;;5104065;28;20512;-65
2022/09/06 08:52:57;;;;;;;0.80;0.60;;;16.40;93.30;;;;;;5101936;28;20461;-65
2022/09/06 08:55:51;;;;;;;1.07;0.50;;;16.30;93.60;;;;;;5113199;28;20454;-65
2022/09/06 08:58:51;;;;;;;0.60;0.60;;;16.20;94.00;;;;;;5107395;28;20446;-65
2022/09/06 09:01:42;;;;;;;0.70;0.70;;;16.20;94.60;;;;;;5099876;27;20479;-65
2022/09/06 09:04:21;;;;;;;0.70;0.50;;;16.10;95.10;;;;;;5101519;28;20484;-65
2022/09/06 09:06:56;;;;;;;1.20;0.90;;;16.00;95.80;;;;;;5119653;28;20441;-65
2022/09/06 09:09:33;;;;;;;1.13;0.90;;;15.90;95.60;;;;;;5120735;28;20447;-64
2022/09/06 09:12:07;;;;;;;1.90;1.00;;;15.90;96.20;;;;;;5118733;28;20810;-65
2022/09/06 09:14:42;;;;;;;1.17;0.50;;;15.90;96.90;;;;;;5110507;28;20462;-64
2022/09/06 09:17:19;;;;;;;0.70;0.57;;;15.80;97.00;;;;;;5106094;28;20477;-64
2022/09/06 09:19:50;;;;;;;0.80;0.73;;;15.70;97.10;;;;;;5105740;28;20474;-65
2022/09/06 09:22:21;;;;;;;0.70;0.50;;;15.70;98.00;;;;;;5116360;28;20489;-65
2022/09/06 09:24:54;;;;;;;0.80;0.80;;;15.60;98.70;;;;;;5114665;28;20428;-64
2022/09/06 09:27:28;;;;;;;0.90;0.80;;;15.60;99.10;;;;;;5115568;28;20548;-64
2022/09/06 09:30:01;;;;;;;0.77;0.77;;;15.60;99.20;;;;;;5105492;28;20461;-64
2022/09/06 09:32:52;;;;;;;0.70;0.70;;;15.50;99.30;;;;;;5106291;28;20480;-64
2022/09/06 09:35:29;;;;;;;1.10;0.67;;;15.50;99.50;;;;;;5121870;28;20472;-64
2022/09/06 09:38:07;;;;;;;0.70;0.70;;;15.50;99.90;;;;;;5122836;28;20491;-64
2022/09/06 09:40:50;;;;;;;1.27;0.87;;;15.40;99.90;;;;;;5099248;28;20490;-65
2022/09/06 09:43:24;;;;;;;1.00;0.60;;;15.40;99.90;;;;;;5112583;28;20497;-64
2022/09/06 09:46:28;;;;;;;1.00;0.83;;;15.30;99.90;;;;;;5105721;28;20472;-65
2022/09/06 09:49:05;;;;;;;1.20;1.10;;;15.20;99.90;;;;;;5107107;28;20536;-64
2022/09/06 09:51:38;;;;;;;0.60;0.60;;;15.30;99.90;;;;;;5108759;28;20459;-64
2022/09/06 09:54:10;;;;;;;0.77;0.50;;;15.30;99.90;;;;;;5108391;28;20466;-64
2022/09/06 09:56:50;;;;;;;1.00;0.70;;;15.20;99.90;;;;;;5090730;28;20844;-64
2022/09/06 09:59:25;;;;;;;1.33;0.87;;;15.20;99.90;;;;;;5108306;28;20458;-64
2022/09/06 10:01:58;;;;;;;3.80;0.90;;;15.10;99.90;;;;;;5088686;28;20469;-64
2022/09/06 10:04:32;;;;;;;0.57;0.57;;;15.10;99.90;;;;;;5109393;28;20493;-64
2022/09/06 10:07:16;;;;;;;0.77;0.60;;;15.20;99.90;;;;;;5121953;28;20457;-64
2022/09/06 10:09:49;;;;;;;1.23;1.13;;;15.20;99.90;;;;;;5115119;28;20476;-65
2022/09/06 10:12:30;;;;;;;1.50;1.00;;;15.20;99.90;;;;;;5112059;28;20479;-65
2022/09/06 10:15:01;;;;;;;1.17;1.07;;;15.00;99.90;;;;;;5118792;28;20488;-65
2022/09/06 10:17:37;;;;;;;1.00;0.93;;;15.10;99.90;;;;;;5111446;28;20523;-64
2022/09/06 10:20:11;;;;;;;0.77;0.60;;;15.00;99.90;;;;;;5119283;28;20488;-65
2022/09/06 10:22:52;;;;;;;0.90;0.77;;;14.90;99.90;;;;;;5116263;28;20478;-65
2022/09/06 10:25:47;;;;;;;1.80;0.83;;;14.90;99.90;;;;;;5115872;28;20458;-65
2022/09/06 10:28:32;;;;;;;0.97;0.83;;;14.90;99.90;;;;;;5114244;28;20533;-64
2022/09/06 10:31:28;;;;;;;1.60;1.07;;;14.80;99.90;;;;;;5096378;28;20471;-64
2022/09/06 10:34:10;;;;;;;1.67;1.00;;;14.80;99.90;;;;;;5117864;28;20533;-65
2022/09/06 10:36:45;;;;;;;1.00;1.00;;;14.80;99.90;;;;;;5104372;28;20470;-64
2022/09/06 10:39:32;;;;;;;1.00;0.87;;;14.70;99.90;;;;;;5107129;28;20460;-64
2022/09/06 10:42:12;;;;;;;1.60;0.70;;;14.70;99.90;;;;;;5096064;28;20463;-64
2022/09/06 10:44:59;;;;;;;1.10;0.80;;;14.60;99.90;;;;;;5101135;28;20483;-65
2022/09/06 10:47:34;;;;;;;0.97;0.93;;;14.60;99.90;;;;;;5115846;28;20553;-65
2022/09/06 10:50:08;;;;;;;1.10;0.90;;;14.50;99.90;;;;;;5105315;28;20429;-65
2022/09/06 10:52:43;;;;;;;3.90;1.03;;;14.50;99.90;;;;;;5103162;28;20917;-65
2022/09/06 10:55:17;;;;;;;1.17;0.63;;;14.50;99.90;;;;;;5112394;28;20462;-65
2022/09/06 10:57:54;;;;;;;1.00;0.50;;;14.50;99.90;;;;;;5111956;28;20456;-65
2022/09/06 11:00:50;;;;;;;2.30;0.90;;;14.40;99.90;;;;;;5108493;28;20526;-65
2022/09/06 11:03:28;;;;;;;0.53;0.53;;;14.40;99.90;;;;;;5111333;28;20616;-65
2022/09/06 11:06:23;;;;;;;0.93;0.80;;;14.40;99.90;;;;;;5110216;28;20506;-65
2022/09/06 11:09:03;;;;;;;1.20;1.00;;;14.40;99.90;;;;;;5105573;28;20465;-65
2022/09/06 11:11:41;;;;;;;1.90;1.00;;;14.30;99.90;;;;;;5114499;28;20468;-65
2022/09/06 11:14:14;;;;;;;1.73;0.77;;;14.30;99.90;;;;;;5118665;28;20446;-65
2022/09/06 11:16:53;;;;;;;0.90;0.80;;;14.30;99.90;;;;;;5124026;28;20507;-64
2022/09/06 11:19:28;;;;;;;0.83;0.83;;;14.20;99.90;;;;;;5098428;28;20466;-64
2022/09/06 11:22:33;;;;;;;1.00;1.00;;;14.20;99.90;;;;;;5116483;28;20456;-64
2022/09/06 11:25:41;;;;;;;1.53;0.90;;;14.20;99.90;;;;;;5100494;28;20492;-65
2022/09/06 11:28:15;;;;;;;1.60;0.70;;;14.20;99.90;;;;;;5096169;28;20490;-64
2022/09/06 11:30:48;;;;;;;1.03;0.93;;;14.10;99.90;;;;;;5109160;28;20493;-64
2022/09/06 11:33:28;;;;;;;2.27;1.20;;;14.10;99.90;;;;;;5123780;28;20445;-64
2022/09/06 11:36:28;;;;;;;1.50;1.07;;;14.00;99.90;;;;;;5113670;28;20803;-64
2022/09/06 11:39:01;;;;;;;1.17;0.97;;;14.00;99.90;;;;;;5101467;28;20467;-65
2022/09/06 11:41:34;;;;;;;1.13;1.03;;;14.00;99.90;;;;;;5115571;28;20472;-64
2022/09/06 11:44:05;;;;;;;1.00;0.90;;;14.00;99.90;;;;;;5120892;28;20493;-64
2022/09/06 11:46:59;;;;;;;1.77;1.17;;;14.00;99.90;;;;;;5123865;28;20491;-64
2022/09/06 11:49:38;;;;;;;1.80;1.00;;;14.00;99.90;;;;;;5125798;28;20634;-64
2022/09/06 11:52:51;;;;;;;1.77;0.77;;;14.00;99.90;;;;;;5124781;28;20461;-64
2022/09/06 11:55:25;;;;;;;0.80;0.80;;;13.90;99.90;;;;;;5099037;28;21039;-64
2022/09/06 11:57:58;;;;;;;1.00;1.00;;;13.90;99.90;;;;;;5125420;28;20456;-64
2022/09/06 12:00:31;;;;;;;0.70;0.60;;;13.80;99.90;;;;;;5125627;28;20430;-65
2022/09/06 12:03:02;;;;;;;1.00;0.90;;;13.80;99.90;;;;;;5126072;28;20541;-64
2022/09/06 12:06:19;;;;;;;1.37;1.00;;;13.80;99.90;;;;;;5125158;28;20672;-64
2022/09/06 12:08:51;;;;;;;1.77;0.90;;;13.80;99.90;;;;;;5125677;28;20942;-65
2022/09/06 12:11:39;;;;;;;1.20;0.90;;;13.70;99.90;;;;;;5124291;28;20449;-64
2022/09/06 12:14:28;;;;;;;2.07;0.93;;;13.70;99.90;;;;;;5114504;28;20472;-64
2022/09/06 12:17:47;;;;;;;1.57;1.03;;;13.70;99.90;;;;;;5113578;28;20461;-64
2022/09/06 12:20:50;;;;;;;2.60;1.00;;;13.70;99.90;;;;;;5116754;28;20464;-65
2022/09/06 12:23:43;;;;;;;1.43;0.97;;;13.70;99.90;;;;;;5119193;28;20472;-65
2022/09/06 12:26:34;;;;;;;1.03;0.80;;;13.70;99.90;;;;;;5113903;28;20453;-65
2022/09/06 12:29:11;;;;;;;1.20;1.10;;;13.60;99.90;;;;;;5105901;28;20458;-64
2022/09/06 12:31:44;;;;;;;1.37;0.93;;;13.60;99.90;;;;;;5110477;28;20476;-64
2022/09/06 12:34:21;;;;;;;0.87;0.80;;;13.60;99.90;;;;;;5119961;28;20461;-65
2022/09/06 12:36:58;;;;;;;1.00;0.90;;;13.50;99.90;;;;;;5122114;27;20560;-65
2022/09/06 12:39:30;;;;;;;2.97;0.90;;;13.50;99.90;;;;;;5109159;28;20445;-64
2022/09/06 12:42:04;;;;;;;1.20;0.90;;;13.50;99.90;;;;;;5104111;28;20454;-64
2022/09/06 12:44:37;;;;;;;1.03;0.97;;;13.50;99.90;;;;;;5112704;28;21043;-64
2022/09/06 12:47:13;;;;;;;1.37;1.10;;;13.40;99.90;;;;;;5108379;28;20458;-64
2022/09/06 12:49:43;;;;;;;0.90;0.90;;;13.40;99.90;;;;;;5094355;28;20463;-64
2022/09/06 12:52:16;;;;;;;3.13;1.03;;;13.40;99.90;;;;;;5102768;28;20482;-64
2022/09/06 12:54:50;;;;;;;2.73;1.10;;;13.30;99.90;;;;;;5114682;28;20462;-64
2022/09/06 12:57:23;;;;;;;4.00;1.57;;;13.30;99.90;;;;;;5092341;28;20449;-64
2022/09/06 12:59:56;;;;;;;1.40;1.30;;;13.30;99.90;;;;;;5119213;28;20466;-64
2022/09/06 13:02:32;;;;;;;2.30;1.10;;;13.30;99.90;;;;;;5110465;28;20461;-64
2022/09/06 13:05:05;;;;;;;1.87;1.13;;;13.20;99.90;;;;;;5113873;28;20490;-64
2022/09/06 13:07:40;;;;;;;1.23;1.00;;;13.20;99.90;;;;;;5094189;28;20457;-64
2022/09/06 13:10:16;;;;;;;1.30;1.20;;;13.20;99.90;;;;;;5115416;28;20445;-64
2022/09/06 13:12:51;;;;;;;1.83;1.07;;;13.20;99.90;;;;;;5113442;28;20452;-64
2022/09/06 13:15:25;;;;;;;1.10;1.00;;;13.20;99.90;;;;;;5112527;28;20461;-64
2022/09/06 13:18:16;;;;;;;1.00;1.00;;;13.10;99.90;;;;;;5109557;28;20468;-64
2022/09/06 13:20:57;;;;;;;1.30;1.03;;;13.10;99.90;;;;;;5113451;28;20488;-64
2022/09/06 13:23:28;;;;;;;1.40;1.10;;;13.00;99.90;;;;;;5113887;28;20558;-64
2022/09/06 13:26:01;;;;;;;1.70;1.13;;;13.10;99.90;;;;;;5115200;28;20491;-65
2022/09/06 13:28:33;;;;;;;1.37;0.97;;;13.00;99.90;;;;;;5100625;28;20451;-63
2022/09/06 13:31:11;;;;;;;1.07;0.90;;;13.00;99.90;;;;;;5091031;28;20811;-64
2022/09/06 13:33:43;;;;;;;1.20;1.10;;;13.00;99.90;;;;;;5109324;28;20559;-64